Time;durP1;ratioP1;P1;durP2;ratioP2;P2;SDS_P1;SDS_P2;PMS_P1;PMS_P2;Temp;Humidity;BMP_temperature;BMP_pressure;BME280_temperature;BME280_humidity;BME280_pressure;Samples;Min_cycle;Max_cycle;Signal;HPM_P1;HPM_P2
2022/06/03 00:00:32;;;;;;;5.57;2.75;;;11.30;99.90;;;;;;4996155;28;20423;-74
2022/06/03 00:03:28;;;;;;;4.07;3.22;;;11.30;99.90;;;;;;4995831;28;20478;-74
2022/06/03 00:06:09;;;;;;;4.78;3.42;;;11.70;99.90;;;;;;4996440;28;20507;-74
2022/06/03 00:08:56;;;;;;;5.18;3.15;;;11.20;99.90;;;;;;4994844;28;20039;-74
2022/06/03 00:11:40;;;;;;;4.32;2.90;;;11.20;99.90;;;;;;4996228;28;20542;-74
2022/06/03 00:14:41;;;;;;;6.55;2.70;;;11.20;99.90;;;;;;4994923;28;20086;-74
2022/06/03 00:17:31;;;;;;;5.18;2.80;;;11.20;99.90;;;;;;4996109;28;20061;-74
2022/06/03 00:20:31;;;;;;;4.40;2.72;;;11.20;99.90;;;;;;4995911;28;20057;-75
2022/06/03 00:23:22;;;;;;;3.80;2.63;;;11.10;99.90;;;;;;4995765;28;20050;-75
2022/06/03 00:26:10;;;;;;;4.10;2.88;;;11.10;99.90;;;;;;4995699;28;20089;-75
2022/06/03 00:29:13;;;;;;;5.22;3.15;;;11.10;99.90;;;;;;4995579;28;20053;-74
2022/06/03 00:32:16;;;;;;;4.35;2.60;;;11.00;99.90;;;;;;4995336;28;20053;-75
2022/06/03 00:35:03;;;;;;;5.60;3.00;;;11.00;99.90;;;;;;4994373;28;20100;-74
2022/06/03 00:37:45;;;;;;;4.85;2.97;;;11.00;99.90;;;;;;4995764;28;20286;-74
2022/06/03 00:40:22;;;;;;;5.90;2.92;;;11.00;99.90;;;;;;4995444;28;20062;-74
2022/06/03 00:43:03;;;;;;;3.58;3.08;;;11.00;99.90;;;;;;4995917;28;20505;-74
2022/06/03 00:46:03;;;;;;;4.07;3.10;;;10.80;99.90;;;;;;4995984;28;20059;-74
2022/06/03 00:48:40;;;;;;;4.85;2.80;;;10.90;99.90;;;;;;4995390;28;20487;-73
2022/06/03 00:51:27;;;;;;;5.30;3.38;;;10.80;99.90;;;;;;4995362;28;20497;-74
2022/06/03 00:54:01;;;;;;;4.10;3.38;;;10.80;99.90;;;;;;4995694;28;20399;-74
2022/06/03 00:56:45;;;;;;;7.28;3.22;;;10.90;99.90;;;;;;4995089;28;20050;-74
2022/06/03 00:59:49;;;;;;;5.22;3.35;;;10.80;99.90;;;;;;4995074;28;20505;-74
2022/06/03 01:02:29;;;;;;;5.78;3.10;;;10.70;99.90;;;;;;4973443;28;20050;-73
2022/06/03 01:05:09;;;;;;;5.13;3.05;;;10.70;99.90;;;;;;4993677;28;20541;-74
2022/06/03 01:07:43;;;;;;;7.13;3.67;;;10.80;99.90;;;;;;4994905;28;20093;-74
2022/06/03 01:10:34;;;;;;;5.30;3.03;;;10.60;99.90;;;;;;4993737;28;20054;-74
2022/06/03 01:13:14;;;;;;;4.82;3.28;;;10.60;99.90;;;;;;4994601;28;20047;-74
2022/06/03 01:16:00;;;;;;;4.50;3.17;;;10.60;99.90;;;;;;4995096;28;20065;-75
2022/06/03 01:18:34;;;;;;;4.75;3.42;;;10.60;99.90;;;;;;4994700;28;20151;-75
2022/06/03 01:21:41;;;;;;;7.13;2.90;;;10.60;99.90;;;;;;4994654;28;20133;-74
2022/06/03 01:24:22;;;;;;;4.50;2.85;;;10.50;99.90;;;;;;4991718;28;20062;-74
2022/06/03 01:27:12;;;;;;;3.05;2.58;;;10.50;99.90;;;;;;4994601;28;20081;-75
2022/06/03 01:29:49;;;;;;;5.47;3.13;;;10.50;99.90;;;;;;4994534;28;20053;-74
2022/06/03 01:32:24;;;;;;;3.67;2.85;;;10.40;99.90;;;;;;4994552;28;20046;-75
2022/06/03 01:34:58;;;;;;;6.47;3.13;;;10.40;99.90;;;;;;4993306;28;20375;-74
2022/06/03 01:37:34;;;;;;;5.43;2.97;;;10.50;99.90;;;;;;4994967;28;20042;-74
2022/06/03 01:40:07;;;;;;;8.07;3.28;;;10.50;99.90;;;;;;4994482;28;20050;-74
2022/06/03 01:42:58;;;;;;;5.93;2.92;;;10.40;99.90;;;;;;4995034;28;20386;-74
2022/06/03 01:45:51;;;;;;;6.55;3.47;;;10.40;99.90;;;;;;4994410;28;20058;-74
2022/06/03 01:49:09;;;;;;;6.13;3.00;;;10.40;99.90;;;;;;4995080;28;20097;-74
2022/06/03 01:52:21;;;;;;;5.53;2.97;;;10.30;99.90;;;;;;4957747;28;20055;-74
2022/06/03 01:55:23;;;;;;;5.55;3.63;;;10.30;99.90;;;;;;4995099;28;20061;-74
2022/06/03 01:58:26;;;;;;;4.88;3.58;;;10.20;99.90;;;;;;4994515;28;20414;-74
2022/06/03 02:01:33;;;;;;;4.17;3.43;;;10.30;99.90;;;;;;4994229;28;20105;-74
2022/06/03 02:04:05;;;;;;;5.65;4.07;;;10.30;99.90;;;;;;4994187;28;20277;-75
2022/06/03 02:06:56;;;;;;;5.90;4.03;;;10.40;99.90;;;;;;4994410;28;20485;-75
2022/06/03 02:10:03;;;;;;;5.60;4.05;;;10.30;99.90;;;;;;4992913;28;20054;-75
2022/06/03 02:13:04;;;;;;;5.50;3.80;;;10.30;99.90;;;;;;4972269;28;20550;-74
2022/06/03 02:15:58;;;;;;;7.55;4.30;;;10.40;99.90;;;;;;4993163;28;20054;-74
2022/06/03 02:18:38;;;;;;;;;;;10.20;99.90;;;;;;4995053;28;20038;-74
2022/06/03 02:21:05;;;;;;;6.10;4.00;;;10.20;99.90;;;;;;4994560;28;19922;-74
2022/06/03 02:23:43;;;;;;;7.15;4.55;;;10.10;99.90;;;;;;4996857;28;20410;-75
2022/06/03 02:26:23;;;;;;;5.70;4.45;;;10.20;99.90;;;;;;4996972;28;20104;-74
2022/06/03 02:28:49;;;;;;;7.43;4.78;;;10.20;99.90;;;;;;4998667;28;20038;-74
2022/06/03 02:31:17;;;;;;;6.05;4.43;;;10.10;99.90;;;;;;4997796;28;20502;-75
2022/06/03 02:34:16;;;;;;;5.15;3.97;;;10.40;99.90;;;;;;4998051;28;20046;-75
2022/06/03 02:37:36;;;;;;;6.45;4.72;;;10.10;99.90;;;;;;4998051;28;20108;-75
2022/06/03 02:40:16;;;;;;;5.75;4.07;;;10.10;99.90;;;;;;4975781;28;20487;-74
2022/06/03 02:43:16;;;;;;;5.03;4.20;;;10.10;99.90;;;;;;4995386;28;20050;-75
2022/06/03 02:46:07;;;;;;;6.22;4.28;;;10.00;99.90;;;;;;4997511;28;20062;-74
2022/06/03 02:49:08;;;;;;;6.25;3.88;;;9.90;99.90;;;;;;4980910;28;20051;-75
2022/06/03 02:52:25;;;;;;;5.97;4.40;;;10.00;99.90;;;;;;4997611;28;20058;-75
2022/06/03 02:55:13;;;;;;;7.32;4.72;;;10.10;99.90;;;;;;4985302;28;20513;-74
2022/06/03 02:58:03;;;;;;;5.47;3.55;;;9.90;99.90;;;;;;4997624;28;20054;-75
2022/06/03 03:01:10;;;;;;;5.45;3.90;;;9.80;99.90;;;;;;4997293;28;20092;-75
2022/06/03 03:03:38;;;;;;;6.20;3.97;;;9.80;99.90;;;;;;4991619;28;20057;-74
2022/06/03 03:06:25;;;;;;;6.85;3.75;;;9.80;99.90;;;;;;4997192;28;20061;-74
2022/06/03 03:09:13;;;;;;;7.60;4.72;;;9.80;99.90;;;;;;4997188;28;20522;-74
2022/06/03 03:12:08;;;;;;;6.97;4.97;;;9.80;99.90;;;;;;4996853;28;20521;-75
2022/06/03 03:15:16;;;;;;;7.53;5.18;;;9.90;99.90;;;;;;4996041;28;20068;-74
2022/06/03 03:17:51;;;;;;;6.43;4.22;;;9.70;99.90;;;;;;4997786;28;20050;-74
2022/06/03 03:20:35;;;;;;;8.80;5.10;;;9.80;99.90;;;;;;4996903;28;20046;-74
2022/06/03 03:23:01;;;;;;;6.88;4.75;;;9.80;99.90;;;;;;4996229;28;20046;-74
2022/06/03 03:26:07;;;;;;;7.68;4.57;;;10.00;99.90;;;;;;4996571;28;20368;-75
2022/06/03 03:28:44;;;;;;;6.90;4.88;;;9.80;99.90;;;;;;4996789;28;20108;-74
2022/06/03 03:31:43;;;;;;;7.97;5.10;;;9.70;99.90;;;;;;4996786;28;20050;-74
2022/06/03 03:34:49;;;;;;;8.55;4.57;;;9.80;99.90;;;;;;4996065;28;20053;-74
2022/06/03 03:37:36;;;;;;;6.85;4.93;;;10.00;99.90;;;;;;4996448;28;20491;-75
2022/06/03 03:40:32;;;;;;;7.15;4.80;;;9.70;99.90;;;;;;4996370;28;20513;-74
2022/06/03 03:43:40;;;;;;;8.50;4.78;;;9.90;99.90;;;;;;4996605;28;20050;-74
2022/06/03 03:46:46;;;;;;;5.60;4.63;;;9.80;99.90;;;;;;4996317;28;20089;-74
2022/06/03 03:49:14;;;;;;;7.80;4.90;;;9.90;99.90;;;;;;4996947;28;20046;-74
2022/06/03 03:51:39;;;;;;;8.02;5.28;;;9.80;99.90;;;;;;4996285;28;20402;-74
2022/06/03 03:54:08;;;;;;;7.20;5.00;;;10.20;99.90;;;;;;4996313;28;20050;-74
2022/06/03 03:56:34;;;;;;;8.95;5.57;;;9.90;99.90;;;;;;4996826;28;20099;-74
2022/06/03 03:59:36;;;;;;;9.68;5.53;;;10.00;99.90;;;;;;4996782;28;20465;-75
2022/06/03 04:02:11;;;;;;;8.30;5.65;;;10.00;99.90;;;;;;4996974;28;20069;-74
2022/06/03 04:04:53;;;;;;;8.13;5.53;;;9.90;99.90;;;;;;4995431;28;20141;-74
2022/06/03 04:07:27;;;;;;;8.33;5.70;;;10.10;99.90;;;;;;4996138;28;20115;-74
2022/06/03 04:10:26;;;;;;;7.63;5.30;;;10.10;99.90;;;;;;4996015;28;20081;-74
2022/06/03 04:13:29;;;;;;;8.57;5.85;;;10.10;99.90;;;;;;4994996;28;20046;-74
2022/06/03 04:16:10;;;;;;;8.20;4.95;;;10.10;99.90;;;;;;4992494;28;20133;-75
2022/06/03 04:18:53;;;;;;;10.02;5.70;;;10.10;99.90;;;;;;4996164;28;20478;-74
2022/06/03 04:21:19;;;;;;;;;;;10.20;99.90;;;;;;4995258;28;20057;-74
2022/06/03 04:24:18;;;;;;;11.13;5.75;;;10.50;99.90;;;;;;4995770;28;19921;-75
2022/06/03 04:27:31;;;;;;;7.35;5.10;;;10.30;99.90;;;;;;4995738;28;20051;-75
2022/06/03 04:30:21;;;;;;;7.10;4.63;;;10.40;99.90;;;;;;4995719;28;20141;-75
2022/06/03 04:33:05;;;;;;;6.70;4.38;;;10.50;99.90;;;;;;4995506;28;20101;-74
2022/06/03 04:36:07;;;;;;;10.27;4.72;;;10.50;99.90;;;;;;4978427;28;20490;-75
2022/06/03 04:38:59;;;;;;;7.50;4.15;;;10.60;99.90;;;;;;4995565;28;20046;-74
2022/06/03 04:41:46;;;;;;;5.75;4.05;;;10.70;99.90;;;;;;4992152;28;20054;-74
2022/06/03 04:44:44;;;;;;;8.10;4.10;;;10.80;99.90;;;;;;4994199;28;20062;-75
2022/06/03 04:47:44;;;;;;;7.70;3.78;;;11.00;99.90;;;;;;4971605;28;20380;-75
2022/06/03 04:50:31;;;;;;;7.47;3.90;;;10.80;99.90;;;;;;4995294;28;20050;-75
2022/06/03 04:52:57;;;;;;;5.53;4.03;;;10.80;99.90;;;;;;4995515;28;20069;-77
2022/06/03 04:55:25;;;;;;;7.90;4.65;;;11.20;99.90;;;;;;4995148;28;20483;-76
2022/06/03 04:58:34;;;;;;;5.30;3.47;;;11.10;99.90;;;;;;4995942;28;20109;-75
2022/06/03 05:01:28;;;;;;;4.97;3.85;;;11.00;99.90;;;;;;4995046;28;20046;-75
2022/06/03 05:04:15;;;;;;;6.57;3.97;;;11.00;99.90;;;;;;4995029;28;20055;-76
2022/06/03 05:07:11;;;;;;;5.68;3.80;;;11.00;99.90;;;;;;4995560;28;20046;-76
2022/06/03 05:10:01;;;;;;;4.55;3.38;;;11.20;99.90;;;;;;4995175;28;20467;-76
2022/06/03 05:12:48;;;;;;;6.50;4.00;;;11.10;99.90;;;;;;4994893;28;20097;-76
2022/06/03 05:15:52;;;;;;;7.60;3.55;;;11.20;99.90;;;;;;4994852;28;20050;-75
2022/06/03 05:19:03;;;;;;;7.13;3.60;;;11.20;99.90;;;;;;4995282;28;20044;-75
2022/06/03 05:21:37;;;;;;;5.03;3.08;;;11.20;99.90;;;;;;4994540;28;20112;-76
2022/06/03 05:24:41;;;;;;;4.60;3.15;;;11.30;99.90;;;;;;4994541;28;20046;-76
2022/06/03 05:27:13;;;;;;;4.75;3.13;;;11.30;99.90;;;;;;4995437;28;20344;-76
2022/06/03 05:29:50;;;;;;;8.10;3.85;;;11.40;99.90;;;;;;4995212;28;20474;-78
2022/06/03 05:32:27;;;;;;;4.97;2.75;;;11.30;99.90;;;;;;4994642;28;20049;-77
2022/06/03 05:35:18;;;;;;;7.40;3.50;;;11.50;99.90;;;;;;4995039;28;20050;-76
2022/06/03 05:37:52;;;;;;;7.68;3.00;;;11.50;99.90;;;;;;4993824;28;20058;-76
2022/06/03 05:40:59;;;;;;;8.20;3.55;;;11.50;99.90;;;;;;4995034;28;20541;-76
2022/06/03 05:43:42;;;;;;;5.10;3.20;;;11.60;99.90;;;;;;4984370;28;20061;-76
2022/06/03 05:46:11;;;;;;;5.90;3.97;;;11.60;99.90;;;;;;4993073;28;20054;-75
2022/06/03 05:49:04;;;;;;;5.55;3.35;;;11.70;99.90;;;;;;4994323;28;20073;-76
2022/06/03 05:51:43;;;;;;;;;;;11.80;99.90;;;;;;4994666;28;20042;-75
2022/06/03 05:54:34;;;;;;;6.40;3.50;;;11.90;99.90;;;;;;4993097;28;19926;-75
2022/06/03 05:57:19;;;;;;;4.78;3.35;;;11.80;99.90;;;;;;4994010;28;20054;-75
2022/06/03 05:59:55;;;;;;;4.00;2.80;;;11.90;99.90;;;;;;4994246;28;20116;-75
2022/06/03 06:02:38;;;;;;;5.60;3.22;;;12.00;99.90;;;;;;4993684;28;20058;-75
2022/06/03 06:05:12;;;;;;;;;;;12.00;99.90;;;;;;4994777;28;20497;-74
2022/06/03 06:08:13;;;;;;;6.05;2.88;;;12.10;99.90;;;;;;4993992;28;20386;-75
2022/06/03 06:10:54;;;;;;;6.38;3.00;;;12.10;99.90;;;;;;4977406;28;20091;-74
2022/06/03 06:13:41;;;;;;;6.70;2.83;;;12.20;99.90;;;;;;4988837;28;20116;-74
2022/06/03 06:16:14;;;;;;;4.00;2.97;;;12.30;99.90;;;;;;4994250;28;20050;-74
2022/06/03 06:18:46;;;;;;;;;;;12.40;99.90;;;;;;4994638;28;20050;-75
2022/06/03 06:21:29;;;;;;;6.28;2.95;;;12.40;99.90;;;;;;4994656;28;19921;-75
2022/06/03 06:24:07;;;;;;;4.80;2.80;;;12.40;99.90;;;;;;4993013;28;20058;-75
2022/06/03 06:26:48;;;;;;;3.90;2.38;;;12.60;99.90;;;;;;4994679;28;20057;-75
2022/06/03 06:29:22;;;;;;;4.80;2.20;;;12.50;99.90;;;;;;4993973;28;20371;-76
2022/06/03 06:32:26;;;;;;;2.88;1.80;;;12.50;99.90;;;;;;4994165;28;20049;-76
2022/06/03 06:35:10;;;;;;;3.58;1.60;;;12.60;99.90;;;;;;4993424;28;20100;-76
2022/06/03 06:37:35;;;;;;;3.55;1.55;;;12.70;99.90;;;;;;4994879;28;20077;-79
2022/06/03 06:40:25;;;;;;;3.15;1.48;;;12.70;99.90;;;;;;4993618;28;20506;-77
2022/06/03 06:42:53;;;;;;;2.80;1.20;;;12.80;99.90;;;;;;4993322;28;20475;-75
2022/06/03 06:45:41;;;;;;;2.63;1.40;;;12.90;99.90;;;;;;4993901;28;20101;-73
2022/06/03 06:48:31;;;;;;;2.70;1.65;;;13.00;99.90;;;;;;4993919;28;20053;-74
2022/06/03 06:51:19;;;;;;;1.63;1.40;;;13.00;99.90;;;;;;4993895;28;20096;-74
2022/06/03 06:54:15;;;;;;;2.17;1.58;;;13.10;99.90;;;;;;4993616;28;20510;-74
2022/06/03 06:57:09;;;;;;;3.08;1.80;;;13.20;99.90;;;;;;4978687;28;20058;-74
2022/06/03 06:59:55;;;;;;;2.80;1.50;;;13.20;99.90;;;;;;4990467;28;20061;-74
2022/06/03 07:02:24;;;;;;;2.90;1.63;;;13.30;99.90;;;;;;4993175;28;20061;-74
2022/06/03 07:04:58;;;;;;;2.47;1.58;;;13.40;99.90;;;;;;4993756;28;20046;-76
2022/06/03 07:07:43;;;;;;;4.05;1.60;;;13.50;99.90;;;;;;4992504;28;20042;-73
2022/06/03 07:10:14;;;;;;;3.78;1.90;;;13.50;99.90;;;;;;4995631;28;20087;-71
2022/06/03 07:12:52;;;;;;;1.80;1.30;;;13.60;99.90;;;;;;4997197;28;20129;-72
2022/06/03 07:15:23;;;;;;;3.15;1.30;;;13.70;99.90;;;;;;4998066;28;20047;-72
2022/06/03 07:21:14;;;;;;;1.73;1.20;;;13.70;99.90;;;;;;4997577;28;20050;-74
2022/06/03 07:23:53;;;;;;;3.28;1.50;;;13.80;99.90;;;;;;4997056;28;20058;-73
2022/06/03 07:26:37;;;;;;;3.20;1.20;;;13.90;99.90;;;;;;4996997;28;20133;-74
2022/06/03 07:29:26;;;;;;;1.70;1.13;;;13.90;99.90;;;;;;4996831;28;20133;-74
2022/06/03 07:32:10;;;;;;;1.85;1.15;;;14.10;99.90;;;;;;4996828;28;20158;-75
2022/06/03 07:34:59;;;;;;;1.75;1.10;;;14.10;99.90;;;;;;4996871;28;20185;-73
2022/06/03 07:37:45;;;;;;;1.42;0.93;;;14.30;99.90;;;;;;4996855;28;20130;-74
2022/06/03 07:40:19;;;;;;;2.95;1.00;;;14.30;99.90;;;;;;4996801;28;20061;-74
2022/06/03 07:42:50;;;;;;;2.42;0.88;;;14.30;99.90;;;;;;4996819;28;20061;-73
2022/06/03 07:45:34;;;;;;;1.00;0.80;;;14.40;99.90;;;;;;4995746;28;20406;-75
2022/06/03 07:48:04;;;;;;;1.33;0.88;;;14.50;99.90;;;;;;4996304;28;20482;-75
2022/06/03 07:50:33;;;;;;;2.00;0.80;;;14.60;99.90;;;;;;4979845;28;20046;-75
2022/06/03 07:53:07;;;;;;;1.00;0.88;;;14.70;99.90;;;;;;4996423;28;20054;-74
2022/06/03 07:55:35;;;;;;;1.90;0.90;;;14.80;99.90;;;;;;4996619;28;20039;-74
2022/06/03 07:58:09;;;;;;;1.48;1.20;;;14.80;99.90;;;;;;4996944;28;20047;-74
2022/06/03 08:00:39;;;;;;;2.70;1.13;;;14.90;99.90;;;;;;4996753;28;20060;-73
2022/06/03 08:03:16;;;;;;;2.45;1.33;;;15.00;99.90;;;;;;4997206;28;20146;-74
2022/06/03 08:05:45;;;;;;;3.88;1.20;;;15.10;99.90;;;;;;4996874;28;20085;-73
2022/06/03 08:11:07;;;;;;;4.07;1.50;;;15.20;99.90;;;;;;4996196;28;20081;-74
2022/06/03 08:13:42;;;;;;;1.75;1.20;;;15.40;99.90;;;;;;4997032;28;20085;-74
2022/06/03 08:16:38;;;;;;;3.00;1.08;;;15.40;99.90;;;;;;4996092;28;20046;-79
2022/06/03 08:19:27;;;;;;;1.13;0.65;;;15.40;99.90;;;;;;4991750;28;20586;-79
2022/06/03 08:22:00;;;;;;;0.93;0.70;;;15.50;99.90;;;;;;4994803;28;20538;-82
2022/06/03 08:24:48;;;;;;;2.80;1.02;;;15.60;99.90;;;;;;4995541;28;20057;-82
2022/06/03 08:27:24;;;;;;;1.48;0.82;;;15.70;99.90;;;;;;4994854;28;20136;-82
2022/06/03 08:30:07;;;;;;;1.20;0.70;;;15.70;99.90;;;;;;4995162;28;20490;-83
2022/06/03 08:32:44;;;;;;;1.08;0.73;;;15.80;99.90;;;;;;4994779;28;20495;-82
2022/06/03 08:35:16;;;;;;;1.70;0.70;;;15.90;99.90;;;;;;4995997;28;20054;-82
2022/06/03 08:38:02;;;;;;;1.13;0.60;;;16.00;99.90;;;;;;4995110;28;20050;-83
2022/06/03 08:40:49;;;;;;;1.10;0.52;;;16.00;99.90;;;;;;4994980;28;20054;-81
2022/06/03 08:43:53;;;;;;;2.03;0.60;;;16.00;99.90;;;;;;4994934;28;20053;-80
2022/06/03 08:46:26;;;;;;;1.50;0.70;;;16.10;99.90;;;;;;4995756;28;20507;-77
2022/06/03 08:48:59;;;;;;;0.80;0.52;;;16.20;99.90;;;;;;4995129;28;20372;-78
2022/06/03 08:51:31;;;;;;;1.30;0.73;;;16.30;99.90;;;;;;4995400;28;20125;-82
2022/06/03 08:54:18;;;;;;;1.95;0.65;;;16.30;99.90;;;;;;4994452;28;20514;-82
2022/06/03 08:56:47;;;;;;;1.55;0.70;;;16.40;99.90;;;;;;4995236;28;20050;-86
2022/06/03 08:59:22;;;;;;;1.60;0.70;;;16.50;99.90;;;;;;4995801;28;20081;-76
2022/06/03 09:01:53;;;;;;;1.98;0.60;;;16.60;99.90;;;;;;4995083;28;20060;-79
2022/06/03 09:04:22;;;;;;;1.50;0.80;;;16.70;99.90;;;;;;4995553;28;20419;-79
2022/06/03 09:07:15;;;;;;;1.75;0.80;;;16.70;99.90;;;;;;4995244;28;20105;-78
2022/06/03 09:09:53;;;;;;;2.50;1.00;;;16.80;99.90;;;;;;4995470;28;20060;-78
2022/06/03 09:12:36;;;;;;;1.98;1.30;;;16.90;99.90;;;;;;4995147;28;20051;-75
2022/06/03 09:15:08;;;;;;;;;;;16.90;99.90;;;;;;4996008;28;20038;-75
2022/06/03 09:17:34;;;;;;;2.05;0.80;;;17.00;99.90;;;;;;4994978;28;19929;-78
2022/06/03 09:20:05;;;;;;;1.52;0.85;;;17.10;99.90;;;;;;4993978;28;20050;-77
2022/06/03 09:22:32;;;;;;;1.40;0.70;;;17.20;99.90;;;;;;4994900;28;20038;-78
2022/06/03 09:25:00;;;;;;;1.65;0.80;;;17.20;99.90;;;;;;4994855;28;20104;-79
2022/06/03 09:27:29;;;;;;;1.15;0.80;;;17.30;99.90;;;;;;4994730;28;20056;-80
2022/06/03 09:29:57;;;;;;;2.33;0.80;;;17.30;99.90;;;;;;4994766;28;20099;-79
2022/06/03 09:32:26;;;;;;;2.03;0.98;;;17.30;99.90;;;;;;4993008;28;20112;-77
2022/06/03 09:35:01;;;;;;;1.73;0.73;;;17.30;99.90;;;;;;4993502;28;20046;-80
2022/06/03 09:37:35;;;;;;;1.95;0.88;;;17.40;99.90;;;;;;4994648;28;20057;-79
2022/06/03 09:40:05;;;;;;;1.15;0.77;;;17.40;99.90;;;;;;4994645;28;20058;-80
2022/06/03 09:42:33;;;;;;;2.28;0.90;;;17.40;99.90;;;;;;4994537;28;20080;-80
2022/06/03 09:45:02;;;;;;;1.63;0.70;;;17.50;99.90;;;;;;4993532;28;20110;-80
2022/06/03 09:47:29;;;;;;;3.60;1.00;;;17.60;99.90;;;;;;4996971;28;20078;-80
2022/06/03 09:49:55;;;;;;;1.30;0.80;;;17.60;99.90;;;;;;4994223;28;20050;-79
2022/06/03 09:52:26;;;;;;;1.65;0.90;;;17.70;99.90;;;;;;4977328;28;20049;-81
2022/06/03 09:54:54;;;;;;;1.38;1.10;;;17.70;99.90;;;;;;4995293;28;20045;-80
2022/06/03 09:57:21;;;;;;;1.85;1.10;;;17.80;99.90;;;;;;4994360;28;20042;-80
2022/06/03 09:59:57;;;;;;;2.22;0.90;;;17.90;99.90;;;;;;4994395;28;20089;-77
2022/06/03 10:02:25;;;;;;;1.20;0.80;;;17.90;99.90;;;;;;4995265;28;20382;-79
2022/06/03 10:04:51;;;;;;;1.30;0.90;;;17.90;99.90;;;;;;4977150;28;20072;-79
2022/06/03 10:07:18;;;;;;;1.40;0.80;;;17.90;99.90;;;;;;4994195;28;20558;-81
2022/06/03 10:12:49;;;;;;;1.40;0.88;;;18.00;99.90;;;;;;4994357;28;20054;-81
2022/06/03 10:15:40;;;;;;;4.57;1.10;;;18.10;99.90;;;;;;4994272;28;20185;-80
2022/06/03 10:18:21;;;;;;;2.13;1.08;;;18.20;99.90;;;;;;4992627;28;20510;-79
2022/06/03 10:20:49;;;;;;;2.53;1.05;;;18.20;99.90;;;;;;4992934;28;20509;-79
2022/06/03 10:23:18;;;;;;;2.20;1.20;;;18.30;99.90;;;;;;4994232;28;20387;-83
2022/06/03 10:25:46;;;;;;;1.20;0.90;;;18.30;99.90;;;;;;4993966;28;20051;-80
2022/06/03 10:28:15;;;;;;;3.53;1.20;;;18.40;99.90;;;;;;4994838;28;20101;-80
2022/06/03 10:30:41;;;;;;;5.80;1.00;;;18.50;99.90;;;;;;4993006;28;20093;-81
2022/06/03 10:33:18;;;;;;;1.20;0.90;;;18.50;99.90;;;;;;4994219;28;20438;-78
2022/06/03 10:35:44;;;;;;;1.48;0.90;;;18.50;99.90;;;;;;4993799;28;20043;-79
2022/06/03 10:38:14;;;;;;;4.07;1.10;;;18.60;99.90;;;;;;4993951;28;20082;-80
2022/06/03 10:40:43;;;;;;;0.73;0.70;;;18.60;99.90;;;;;;4994455;28;20460;-75
2022/06/03 10:43:08;;;;;;;2.00;1.00;;;18.60;99.90;;;;;;4993370;28;20410;-77
2022/06/03 10:45:37;;;;;;;1.08;0.80;;;18.70;99.90;;;;;;4996560;28;20058;-80
2022/06/03 10:48:29;;;;;;;1.48;0.80;;;18.80;99.90;;;;;;4996610;28;20117;-81
2022/06/03 11:01:04;;;;;;;1.17;0.70;;;18.80;99.90;;;;;;4996289;28;20049;-79
2022/06/03 11:02:42;;;;;;;1.60;0.90;;;19.10;99.90;;;;;;4997517;28;20058;-77
2022/06/03 11:05:22;;;;;;;2.22;1.00;;;19.10;99.90;;;;;;4997127;28;20054;-76
2022/06/03 11:08:07;;;;;;;1.25;1.00;;;19.20;99.20;;;;;;4998195;28;20379;-77
2022/06/03 11:10:45;;;;;;;2.17;1.17;;;19.10;99.20;;;;;;4996698;28;20065;-79
2022/06/03 11:13:13;;;;;;;1.60;0.80;;;19.10;97.70;;;;;;4996220;28;20053;-76
2022/06/03 11:15:42;;;;;;;1.30;0.90;;;19.10;98.10;;;;;;4996195;28;20394;-76
2022/06/03 11:18:14;;;;;;;1.88;1.00;;;19.10;97.90;;;;;;4996437;28;20050;-76
2022/06/03 11:20:40;;;;;;;4.05;1.20;;;19.00;97.70;;;;;;4995441;28;20086;-77
2022/06/03 11:23:08;;;;;;;1.50;1.08;;;19.00;97.00;;;;;;4996269;28;20514;-77
2022/06/03 11:25:38;;;;;;;2.33;1.00;;;19.00;97.50;;;;;;4996122;28;20046;-77
2022/06/03 11:28:06;;;;;;;4.30;0.90;;;19.10;96.90;;;;;;4995083;28;20129;-76
2022/06/03 11:30:56;;;;;;;2.75;0.90;;;19.10;96.50;;;;;;4996556;28;20494;-77
2022/06/03 11:33:30;;;;;;;2.10;1.20;;;19.10;96.60;;;;;;4996169;28;20053;-79
2022/06/03 11:35:56;;;;;;;2.88;0.90;;;19.20;96.70;;;;;;4996338;28;20086;-77
2022/06/03 11:38:37;;;;;;;1.00;0.90;;;19.20;97.20;;;;;;4996214;28;20093;-76
2022/06/03 11:41:10;;;;;;;1.20;0.80;;;19.20;97.10;;;;;;4979023;28;20401;-78
2022/06/03 11:43:47;;;;;;;1.33;0.90;;;19.20;97.10;;;;;;4995099;28;20054;-79
2022/06/03 11:46:30;;;;;;;1.35;1.00;;;19.20;97.40;;;;;;4994824;28;20059;-79
2022/06/03 11:48:57;;;;;;;1.70;0.80;;;19.20;96.60;;;;;;4994715;28;20043;-78
2022/06/03 11:51:24;;;;;;;2.10;1.00;;;19.30;96.60;;;;;;4996397;28;20100;-77
2022/06/03 11:53:52;;;;;;;2.95;0.90;;;19.30;96.60;;;;;;4994842;28;20047;-77
2022/06/03 11:56:29;;;;;;;1.48;1.05;;;19.40;96.00;;;;;;4994830;28;20112;-76
2022/06/03 11:59:11;;;;;;;2.03;1.00;;;19.40;96.10;;;;;;4995880;28;20104;-77
2022/06/03 12:01:45;;;;;;;1.10;1.00;;;19.50;96.20;;;;;;4978878;28;20062;-76
2022/06/03 12:04:32;;;;;;;1.73;1.10;;;19.60;95.00;;;;;;4995684;28;20456;-77
2022/06/03 12:07:06;;;;;;;1.85;0.90;;;19.60;94.90;;;;;;4994440;28;20090;-76
2022/06/03 12:09:47;;;;;;;2.33;1.17;;;19.60;95.50;;;;;;4994593;28;20046;-77
2022/06/03 12:15:30;;;;;;;2.30;0.77;;;19.70;95.00;;;;;;4996166;28;20061;-77
2022/06/03 12:18:06;;;;;;;0.98;0.68;;;19.60;95.80;;;;;;4994657;28;20050;-75
2022/06/03 12:20:31;;;;;;;1.85;0.80;;;19.70;95.70;;;;;;4994205;28;20058;-75
2022/06/03 12:23:12;;;;;;;1.10;0.70;;;19.80;93.90;;;;;;4995331;28;20130;-76
2022/06/03 12:25:43;;;;;;;1.52;0.80;;;19.70;94.50;;;;;;4993839;28;20146;-75
2022/06/03 12:28:19;;;;;;;0.70;0.60;;;19.80;93.40;;;;;;4995715;28;20564;-76
2022/06/03 12:30:50;;;;;;;1.25;0.70;;;19.80;93.10;;;;;;4995055;28;20054;-77
2022/06/03 12:33:43;;;;;;;0.67;0.60;;;19.90;92.90;;;;;;4994116;28;20054;-75
2022/06/03 12:36:27;;;;;;;0.93;0.60;;;19.90;93.70;;;;;;4994776;28;20071;-75
2022/06/03 12:39:18;;;;;;;1.42;0.70;;;19.90;93.40;;;;;;4995388;28;20057;-75
2022/06/03 12:41:44;;;;;;;1.73;0.80;;;19.90;92.00;;;;;;4994997;28;20054;-76
2022/06/03 12:44:48;;;;;;;2.47;0.60;;;20.00;91.60;;;;;;4993482;28;20038;-77
2022/06/03 12:47:31;;;;;;;0.70;0.70;;;20.10;92.00;;;;;;4994937;28;20054;-77
2022/06/03 12:50:22;;;;;;;3.63;0.82;;;20.10;92.30;;;;;;4993312;28;20426;-77
2022/06/03 12:52:50;;;;;;;0.60;0.60;;;20.10;91.60;;;;;;4993408;28;20050;-77
2022/06/03 12:55:29;;;;;;;1.00;0.60;;;20.20;91.00;;;;;;4993704;28;20050;-76
2022/06/03 12:57:56;;;;;;;1.40;0.70;;;20.20;91.20;;;;;;4994751;28;20057;-74
2022/06/03 13:00:32;;;;;;;1.00;0.70;;;20.30;90.40;;;;;;4994958;28;20058;-77
2022/06/03 13:03:13;;;;;;;1.70;0.70;;;20.30;89.40;;;;;;4993417;28;20434;-76
2022/06/03 13:05:45;;;;;;;1.48;0.77;;;20.30;86.80;;;;;;4994650;28;20133;-75
2022/06/03 13:08:26;;;;;;;;;;;20.30;87.80;;;;;;4976787;28;20089;-77
2022/06/03 13:11:21;;;;;;;4.53;0.77;;;20.30;89.90;;;;;;4995148;28;19934;-76
2022/06/03 13:13:56;;;;;;;0.63;0.63;;;20.30;89.90;;;;;;4989445;28;20101;-75
2022/06/03 13:16:23;;;;;;;2.05;0.60;;;20.30;86.80;;;;;;4977104;28;20050;-76
2022/06/03 13:18:58;;;;;;;1.40;0.60;;;20.30;84.40;;;;;;4994334;28;20130;-75
2022/06/03 13:21:59;;;;;;;1.65;0.60;;;20.30;84.10;;;;;;4993369;28;20069;-75
2022/06/03 13:24:35;;;;;;;1.85;0.52;;;20.30;82.90;;;;;;4989289;28;20058;-75
2022/06/03 13:27:22;;;;;;;1.15;0.50;;;20.30;83.00;;;;;;4994238;28;20050;-77
2022/06/03 13:29:55;;;;;;;1.70;0.52;;;20.30;83.60;;;;;;4993947;28;20375;-77
2022/06/03 13:32:36;;;;;;;0.50;0.50;;;20.30;81.90;;;;;;4992730;28;20117;-75
2022/06/03 13:35:27;;;;;;;1.85;0.50;;;20.30;81.20;;;;;;4993749;28;20046;-77
2022/06/03 13:37:55;;;;;;;1.00;0.43;;;20.30;81.30;;;;;;4994217;28;20057;-77
2022/06/03 13:40:34;;;;;;;0.75;0.60;;;20.30;83.00;;;;;;4992882;28;20151;-76
2022/06/03 13:43:00;;;;;;;1.75;0.50;;;20.40;79.90;;;;;;4993707;28;20090;-79
2022/06/03 13:45:46;;;;;;;1.25;0.52;;;20.40;79.70;;;;;;4994071;28;20093;-79
2022/06/03 13:48:24;;;;;;;1.75;0.80;;;20.40;80.10;;;;;;4992505;28;20053;-77
2022/06/03 13:50:50;;;;;;;2.78;0.70;;;20.40;77.80;;;;;;4993175;28;20050;-77
2022/06/03 13:53:30;;;;;;;1.25;0.70;;;20.40;78.10;;;;;;4993617;28;20050;-76
2022/06/03 13:56:03;;;;;;;0.70;0.52;;;20.30;80.10;;;;;;4994166;28;20398;-79
2022/06/03 13:58:56;;;;;;;1.35;0.80;;;20.40;81.00;;;;;;4993015;28;20390;-77
2022/06/03 14:01:33;;;;;;;0.95;0.60;;;20.40;79.40;;;;;;4990294;28;20117;-77
2022/06/03 14:04:03;;;;;;;0.60;0.60;;;20.40;79.10;;;;;;4993865;28;20092;-77
2022/06/03 14:07:04;;;;;;;0.75;0.60;;;20.40;77.60;;;;;;4993731;28;20058;-81
2022/06/03 14:09:45;;;;;;;0.70;0.60;;;20.40;77.20;;;;;;4989926;28;20069;-80
2022/06/03 14:12:23;;;;;;;1.27;0.60;;;20.40;77.70;;;;;;4992396;28;20046;-82
2022/06/03 14:15:07;;;;;;;3.95;0.60;;;20.40;78.80;;;;;;4993560;28;20059;-78
2022/06/03 14:17:44;;;;;;;1.98;0.70;;;20.40;76.30;;;;;;4992989;28;20046;-81
2022/06/03 14:20:28;;;;;;;1.15;0.77;;;20.40;77.20;;;;;;4996957;28;20562;-81
2022/06/03 14:23:02;;;;;;;1.08;0.50;;;20.30;78.60;;;;;;4996956;28;20367;-81
2022/06/03 14:25:34;;;;;;;1.67;0.73;;;20.20;79.60;;;;;;4998635;28;20394;-78